27 juni 2022

Tijd Code Weer Temp. Zicht Plafond Wind METAR/SPECI
2:00 p.m.
V
84 °F 6¼ mi+ - 180° 180° 10 kt METAR DGAA 271400Z 18010KT 150V210 9999 SCT016 FEW028TCU 29/23 Q1012 NOSIG
1:00 p.m.
V
84 °F 6¼ mi+ - 180° 180° 10 kt METAR DGAA 271300Z 18010KT 150V210 9999 SCT016 29/23 Q1013 NOSIG
12:00 p.m.
V
82 °F 6¼ mi+ - 190° 190° 9 kt METAR DGAA 271200Z 19009KT 9999 FEW012 SCT015 28/23 Q1013 NOSIG
11:00 a.m.
V
84 °F 6¼ mi+ - 180° 180° 9 kt METAR DGAA 271100Z 18009KT 9999 FEW012 SCT015 29/24 Q1014 NOSIG
10:00 a.m.
V
82 °F 6¼ mi+ - 200° 200° 9 kt METAR DGAA 271000Z 20009KT 9999 FEW012 SCT015 28/24 Q1014 NOSIG
9:00 a.m.
V
81 °F 5 mi - 240° 240° 8 kt METAR DGAA 270900Z 24008KT 8000 FEW014 27/23 Q1014 NOSIG
8:00 a.m.
V
79 °F 5 mi - 240° 240° 9 kt METAR DGAA 270800Z 24009KT 8000 FEW014 26/24 Q1014 NOSIG
7:00 a.m.
V
77 °F 5 mi - 260° 260° 8 kt METAR DGAA 270700Z 26008KT 8000 NSC 25/24 Q1013 NOSIG
6:00 a.m.
V
75 °F 5 mi - 250° 250° 6 kt METAR DGAA 270600Z 25006KT 8000 NSC 24/24 Q1012 NOSIG
5:00 a.m.
V
75 °F 6¼ mi+ - 280° 280° 7 kt METAR DGAA 270500Z 28007KT 9999 FEW010 24/24 Q1012 NOSIG
4:00 a.m.
V
77 °F 6¼ mi+ - 280° 280° 4 kt METAR DGAA 270400Z 28004KT CAVOK 25/24 Q1012 NOSIG
1:00 a.m.
V
77 °F 6¼ mi+ - 260° 260° 5 kt METAR DGAA 270100Z 26005KT CAVOK 25/24 Q1012 NOSIG
12:00 a.m.
V
77 °F 6¼ mi+ - 250° 250° 4 kt METAR DGAA 270000Z 25004KT 210V270 9999 FEW010 25/24 Q1013 NOSIG

26 juni 2022

Tijd Code Weer Temp. Zicht Plafond Wind METAR/SPECI
11:00 p.m.
V
79 °F 6¼ mi+ - 250° 250° 4 kt METAR DGAA 262300Z 25004KT CAVOK 26/24 Q1013 NOSIG
10:00 p.m.
V
79 °F 6¼ mi+ - 220° 220° 7 kt METAR DGAA 262200Z 22007KT 9999 FEW011 26/24 Q1013 NOSIG
9:00 p.m.
V
79 °F 6¼ mi+ - 200° 200° 8 kt METAR DGAA 262100Z 20008KT CAVOK 26/24 Q1013 NOSIG
8:00 p.m.
V
79 °F 6¼ mi+ - 200° 200° 9 kt METAR DGAA 262000Z 20009KT 9999 FEW012 26/23 Q1012 NOSIG
7:00 p.m.
V
79 °F 6¼ mi+ - 210° 210° 10 kt METAR DGAA 261900Z 21010KT 9999 FEW015 26/23 Q1012 NOSIG
6:00 p.m.
V
81 °F 6¼ mi+ - 210° 210° 9 kt METAR DGAA 261800Z 21009KT 9999 SCT015 27/23 Q1011 NOSIG
5:00 p.m.
V
81 °F 6¼ mi+ - 200° 200° 11 kt METAR DGAA 261700Z 20011KT 9999 SCT020 27/23 Q1011 NOSIG
3:00 p.m.
V
82 °F 6¼ mi+ - 200° 200° 12 kt METAR DGAA 261500Z 20012KT 9999 SCT020 28/23 Q1012 NOSIG
2:00 p.m.
V
82 °F 6¼ mi+ - 180° 180° 9 kt METAR DGAA 261400Z 18009KT 9999 SCT020 28/24 Q1012 NOSIG
1:00 p.m.
M
82 °F 6¼ mi+ 2.000 ft 190° 190° 9 kt METAR DGAA 261300Z 19009KT 9999 BKN020 28/24 Q1013 NOSIG
12:00 p.m.
M
82 °F 6¼ mi+ 1.800 ft 190° 190° 11 kt METAR DGAA 261200Z 19011KT 9999 BKN018 28/23 Q1014 NOSIG
11:00 a.m.
M
82 °F 6¼ mi+ 1.800 ft 180° 180° 10 kt METAR DGAA 261100Z 18010KT 9999 BKN018 28/24 Q1014 NOSIG
10:00 a.m.
M
82 °F 6¼ mi+ 1.800 ft 220° 220° 11 kt METAR DGAA 261000Z 22011KT 9999 BKN018 28/23 Q1014 NOSIG
9:00 a.m.
V
81 °F 5 mi - 230° 230° 7 kt METAR DGAA 260900Z 23007KT 8000 SCT012 27/23 Q1014 NOSIG
8:00 a.m.
V
79 °F 5 mi - 240° 240° 6 kt METAR DGAA 260800Z 24006KT 8000 FEW010 26/24 Q1013 NOSIG
7:00 a.m.
V
77 °F 5 mi - 230° 230° 5 kt METAR DGAA 260700Z 23005KT 8000 FEW010 25/23 Q1013 NOSIG
6:00 a.m.
M
77 °F 5 mi 1.000 ft 250° 250° 4 kt METAR DGAA 260600Z 25004KT 8000 -RA BKN010 25/23 Q1012 NOSIG
5:00 a.m.
M
77 °F 6¼ mi+ 1.000 ft 260° 260° 5 kt METAR DGAA 260500Z 26005KT 9999 BKN010 25/24 Q1012 NOSIG
4:00 a.m.
M
77 °F 5⅝ mi 1.000 ft 280° 280° 7 kt METAR DGAA 260400Z 28007KT 9000 -RA BKN010 25/24 Q1012 NOSIG
3:00 a.m.
M
77 °F 6¼ mi+ 1.000 ft 260° 260° 5 kt METAR DGAA 260300Z 26005KT 9999 BKN010 25/24 Q1011 NOSIG
2:00 a.m.
M
77 °F 6¼ mi+ 1.000 ft 260° 260° 7 kt METAR DGAA 260200Z 26007KT 9999 BKN010 25/23 Q1012 NOSIG
1:00 a.m.
M
77 °F 6¼ mi+ 1.000 ft 240° 240° 5 kt METAR DGAA 260100Z 24005KT 9999 BKN010 25/23 Q1012 NOSIG
12:00 a.m.
V
77 °F 6¼ mi+ - 240° 240° 8 kt METAR DGAA 260000Z 24008KT 9999 SCT010 25/23 Q1013 NOSIG

25 juni 2022

Tijd Code Weer Temp. Zicht Plafond Wind METAR/SPECI
11:00 p.m.
V
77 °F 6¼ mi+ - 230° 230° 5 kt METAR DGAA 252300Z 23005KT 9999 FEW010 25/23 Q1013 NOSIG
10:00 p.m.
V
77 °F 6¼ mi+ - 220° 220° 8 kt METAR DGAA 252200Z 22008KT 9999 SCT010 25/23 Q1013 NOSIG
9:00 p.m.
M
79 °F 6¼ mi+ 1.100 ft 210° 210° 9 kt METAR DGAA 252100Z 21009KT 9999 BKN011 26/23 Q1013 NOSIG
8:00 p.m.
M
79 °F 6¼ mi+ 1.100 ft 210° 210° 8 kt METAR DGAA 252000Z 21008KT 9999 BKN011 26/24 Q1012 NOSIG
7:00 p.m.
V
77 °F 6¼ mi+ - 200° 200° 8 kt METAR DGAA 251900Z 20008KT 9999 FEW011 25/23 Q1012 NOSIG
6:00 p.m.
V
79 °F 6¼ mi+ - 190° 190° 10 kt METAR DGAA 251800Z 19010KT 9999 SCT011 26/24 Q1011 NOSIG
5:00 p.m.
M
81 °F 6¼ mi+ 1.200 ft 190° 190° 11 kt METAR DGAA 251700Z 19011KT 9999 BKN012 27/24 Q1011 NOSIG
3:00 p.m.
V
81 °F 6¼ mi+ - 200° 200° 12 kt METAR DGAA 251500Z 20012KT 9999 SCT015 27/23 Q1011 NOSIG
Oudere gegevens

Installeer onze app

Gemakkelijke toegang tot al het luchtvaartweer op je mobiele telefoon en tablet.
Met veel functies die niet op de website beschikbaar zijn, zoals offline ondersteuning en een persoonlijke lijst van vliegvelden.

Met cookies volgen wij en derde partijen jouw internetgedrag binnen onze site. Als je verdergaat gaan we ervan uit dat je dit goedvindt. Meer info